EZY815 EGPH-EGKK
Flight info
| Callsign | EZY815 |
|---|---|
| Flight time | 0h 56m |
| Altitude | 35000 |
| Route | GOSAM P600 FENIK L612 NAVSO DCT ADZOP DCT EGTOC DCT KEPAD L151 DISIT |
| Aircraft | A320/M-SDE3FGHIRWY/LB1 |
Departure
| Time | 2026-05-06 09:39 |
|---|---|
| Airport | Edinburgh Airport (EGPH) |
Arrival
| Time | 2026-05-06 10:36 |
|---|---|
| Airport | London Gatwick Airport (EGKK) |
| Time | Latitude | Longitude | Altitude | Speed | Heading |
|---|---|---|---|---|---|
| 2026-05-06 09:19 | 55.94752 | -3.36604 | 117 ft | 0 kts | 89° |
| 2026-05-06 09:31 | 55.94752 | -3.36620 | 116 ft | 4 kts | 88° |
| 2026-05-06 09:31 | 55.94749 | -3.36666 | 114 ft | 4 kts | 78° |
| 2026-05-06 09:31 | 55.94741 | -3.36711 | 112 ft | 4 kts | 51° |
| 2026-05-06 09:31 | 55.94725 | -3.36729 | 112 ft | 1 kts | 345° |
| 2026-05-06 09:32 | 55.94720 | -3.36727 | 112 ft | 0 kts | 345° |
| 2026-05-06 09:34 | 55.94748 | -3.36742 | 114 ft | 8 kts | 338° |
| 2026-05-06 09:34 | 55.94794 | -3.36772 | 115 ft | 6 kts | 348° |
| 2026-05-06 09:35 | 55.94834 | -3.36778 | 116 ft | 5 kts | 356° |
| 2026-05-06 09:35 | 55.94870 | -3.36784 | 116 ft | 7 kts | 350° |
| 2026-05-06 09:35 | 55.94924 | -3.36867 | 116 ft | 12 kts | 279° |
| 2026-05-06 09:35 | 55.94885 | -3.37014 | 114 ft | 14 kts | 237° |
| 2026-05-06 09:36 | 55.94832 | -3.37173 | 115 ft | 16 kts | 239° |
| 2026-05-06 09:36 | 55.94772 | -3.37352 | 113 ft | 18 kts | 239° |
| 2026-05-06 09:36 | 55.94706 | -3.37549 | 113 ft | 19 kts | 239° |
| 2026-05-06 09:36 | 55.94633 | -3.37759 | 115 ft | 21 kts | 239° |
| 2026-05-06 09:37 | 55.94556 | -3.37988 | 114 ft | 22 kts | 239° |
| 2026-05-06 09:37 | 55.94474 | -3.38226 | 113 ft | 23 kts | 239° |
| 2026-05-06 09:37 | 55.94388 | -3.38481 | 115 ft | 24 kts | 239° |
| 2026-05-06 09:37 | 55.94300 | -3.38743 | 114 ft | 21 kts | 239° |
| 2026-05-06 09:38 | 55.94298 | -3.38876 | 113 ft | 12 kts | 305° |
| 2026-05-06 09:38 | 55.94371 | -3.38951 | 114 ft | 13 kts | 341° |
| 2026-05-06 09:38 | 55.94435 | -3.38916 | 114 ft | 0 kts | 53° |
| 2026-05-06 09:38 | 55.94456 | -3.38853 | 113 ft | 31 kts | 59° |
| 2026-05-06 09:39 | 55.94710 | -3.38112 | 114 ft | 105 kts | 59° |
| 2026-05-06 09:39 | 55.95194 | -3.36687 | 112 ft | 161 kts | 58° |
| 2026-05-06 09:39 | 55.95797 | -3.34880 | 576 ft | 169 kts | 57° |
| 2026-05-06 09:39 | 55.96545 | -3.33306 | 1232 ft | 169 kts | 37° |
| 2026-05-06 09:40 | 55.97438 | -3.31936 | 1890 ft | 172 kts | 38° |
| 2026-05-06 09:40 | 55.98388 | -3.30439 | 2204 ft | 193 kts | 39° |
| 2026-05-06 09:40 | 56.00958 | -3.28106 | 2843 ft | 231 kts | 351° |
| 2026-05-06 09:41 | 56.02468 | -3.29237 | 3248 ft | 246 kts | 313° |
| 2026-05-06 09:41 | 56.03272 | -3.31929 | 3950 ft | 252 kts | 277° |
| 2026-05-06 09:41 | 56.03123 | -3.35053 | 4836 ft | 255 kts | 259° |
| 2026-05-06 09:41 | 56.02709 | -3.38187 | 5606 ft | 260 kts | 256° |
| 2026-05-06 09:42 | 56.02238 | -3.41307 | 5839 ft | 261 kts | 255° |
| 2026-05-06 09:42 | 56.01751 | -3.44427 | 5894 ft | 259 kts | 255° |
| 2026-05-06 09:42 | 56.01270 | -3.47542 | 5908 ft | 260 kts | 256° |
| 2026-05-06 09:42 | 56.00803 | -3.50656 | 5906 ft | 260 kts | 256° |
| 2026-05-06 09:43 | 56.00345 | -3.53789 | 5912 ft | 260 kts | 256° |
| 2026-05-06 09:43 | 55.99900 | -3.56884 | 5906 ft | 260 kts | 256° |
| 2026-05-06 09:43 | 55.99454 | -3.60009 | 5904 ft | 260 kts | 257° |
| 2026-05-06 09:43 | 55.99007 | -3.63144 | 5899 ft | 260 kts | 256° |
| 2026-05-06 09:44 | 55.98564 | -3.66261 | 5907 ft | 259 kts | 257° |
| 2026-05-06 09:44 | 55.98117 | -3.69387 | 5901 ft | 259 kts | 256° |
| 2026-05-06 09:44 | 55.97666 | -3.72520 | 5895 ft | 260 kts | 256° |
| 2026-05-06 09:44 | 55.97218 | -3.75620 | 6292 ft | 263 kts | 256° |
| 2026-05-06 09:45 | 55.96644 | -3.78751 | 7336 ft | 266 kts | 243° |
| 2026-05-06 09:45 | 55.95446 | -3.81308 | 8253 ft | 275 kts | 218° |
| 2026-05-06 09:45 | 55.93688 | -3.82769 | 9100 ft | 283 kts | 200° |
| 2026-05-06 09:45 | 55.91805 | -3.83843 | 9973 ft | 286 kts | 200° |
| 2026-05-06 09:46 | 55.89850 | -3.84942 | 10458 ft | 305 kts | 200° |
| 2026-05-06 09:46 | 55.87746 | -3.86126 | 10727 ft | 329 kts | 200° |
| 2026-05-06 09:46 | 55.85492 | -3.87397 | 11017 ft | 349 kts | 200° |
| 2026-05-06 09:46 | 55.83158 | -3.88714 | 11640 ft | 356 kts | 200° |
| 2026-05-06 09:47 | 55.80769 | -3.90068 | 12374 ft | 360 kts | 200° |
| 2026-05-06 09:47 | 55.78337 | -3.91262 | 13086 ft | 367 kts | 191° |
| 2026-05-06 09:47 | 55.75766 | -3.91227 | 13769 ft | 376 kts | 172° |
| 2026-05-06 09:47 | 55.73196 | -3.90199 | 14459 ft | 380 kts | 168° |
| 2026-05-06 09:48 | 55.70648 | -3.89098 | 15114 ft | 383 kts | 168° |
| 2026-05-06 09:48 | 55.68043 | -3.87948 | 15756 ft | 387 kts | 168° |
| 2026-05-06 09:48 | 55.65410 | -3.86782 | 16406 ft | 391 kts | 168° |
| 2026-05-06 09:48 | 55.62751 | -3.85614 | 17021 ft | 395 kts | 168° |
| 2026-05-06 09:49 | 55.60074 | -3.84452 | 17649 ft | 398 kts | 168° |
| 2026-05-06 09:49 | 55.57364 | -3.83285 | 18234 ft | 402 kts | 168° |
| 2026-05-06 09:49 | 55.54634 | -3.82112 | 18825 ft | 406 kts | 168° |
| 2026-05-06 09:49 | 55.51884 | -3.80931 | 19365 ft | 409 kts | 168° |
| 2026-05-06 09:50 | 55.49097 | -3.79740 | 19915 ft | 413 kts | 168° |
| 2026-05-06 09:50 | 55.46290 | -3.78544 | 20442 ft | 416 kts | 168° |
| 2026-05-06 09:50 | 55.43451 | -3.77336 | 20956 ft | 419 kts | 168° |
| 2026-05-06 09:50 | 55.40605 | -3.76123 | 21420 ft | 423 kts | 168° |
| 2026-05-06 09:51 | 55.37735 | -3.74900 | 21898 ft | 426 kts | 168° |
| 2026-05-06 09:51 | 55.34838 | -3.73667 | 22358 ft | 429 kts | 168° |
| 2026-05-06 09:51 | 55.31934 | -3.72436 | 22814 ft | 431 kts | 168° |
| 2026-05-06 09:51 | 55.29041 | -3.71213 | 23243 ft | 434 kts | 168° |
| 2026-05-06 09:52 | 55.26093 | -3.69966 | 23657 ft | 437 kts | 168° |
| 2026-05-06 09:52 | 55.23127 | -3.68711 | 24078 ft | 439 kts | 168° |
| 2026-05-06 09:52 | 55.20149 | -3.67448 | 24487 ft | 442 kts | 168° |
| 2026-05-06 09:52 | 55.17148 | -3.66178 | 24884 ft | 444 kts | 168° |
| 2026-05-06 09:53 | 55.14131 | -3.64911 | 25271 ft | 447 kts | 168° |
| 2026-05-06 09:53 | 55.11102 | -3.63645 | 25634 ft | 448 kts | 168° |
| 2026-05-06 09:53 | 55.08059 | -3.62372 | 25992 ft | 451 kts | 168° |
| 2026-05-06 09:53 | 55.06030 | -3.61524 | 26237 ft | 452 kts | 168° |
| 2026-05-06 09:54 | 55.01961 | -3.59825 | 26679 ft | 455 kts | 168° |
| 2026-05-06 09:54 | 54.99879 | -3.58955 | 26902 ft | 456 kts | 168° |
| 2026-05-06 09:54 | 54.96778 | -3.57656 | 27190 ft | 459 kts | 168° |
| 2026-05-06 09:54 | 54.92658 | -3.55932 | 27573 ft | 461 kts | 168° |
| 2026-05-06 09:55 | 54.90547 | -3.55052 | 27760 ft | 463 kts | 168° |
| 2026-05-06 09:55 | 54.87402 | -3.53746 | 28030 ft | 464 kts | 168° |
| 2026-05-06 09:55 | 54.84255 | -3.52439 | 28287 ft | 466 kts | 168° |
| 2026-05-06 09:55 | 54.81128 | -3.51139 | 28518 ft | 468 kts | 168° |
| 2026-05-06 09:56 | 54.77947 | -3.49826 | 28759 ft | 470 kts | 168° |
| 2026-05-06 09:56 | 54.74754 | -3.48519 | 28979 ft | 471 kts | 168° |
| 2026-05-06 09:56 | 54.71559 | -3.47215 | 29281 ft | 471 kts | 168° |
| 2026-05-06 09:56 | 54.68375 | -3.45909 | 29614 ft | 470 kts | 168° |
| 2026-05-06 09:57 | 54.65187 | -3.44598 | 29936 ft | 469 kts | 168° |
| 2026-05-06 09:57 | 54.62003 | -3.43290 | 30257 ft | 469 kts | 168° |
| 2026-05-06 09:57 | 54.58874 | -3.42009 | 30562 ft | 468 kts | 168° |
| 2026-05-06 09:57 | 54.55698 | -3.40709 | 30859 ft | 468 kts | 168° |
| 2026-05-06 09:58 | 54.52521 | -3.39408 | 31144 ft | 468 kts | 168° |
| 2026-05-06 09:58 | 54.49353 | -3.38117 | 31426 ft | 468 kts | 168° |
| 2026-05-06 09:58 | 54.46177 | -3.36827 | 31714 ft | 468 kts | 168° |
| 2026-05-06 09:58 | 54.43014 | -3.35544 | 32017 ft | 467 kts | 168° |
| 2026-05-06 09:59 | 54.39853 | -3.34261 | 32330 ft | 465 kts | 168° |
| 2026-05-06 09:59 | 54.36704 | -3.32983 | 32631 ft | 464 kts | 168° |
| 2026-05-06 09:59 | 54.33567 | -3.31718 | 32909 ft | 464 kts | 168° |
| 2026-05-06 09:59 | 54.30447 | -3.30468 | 33172 ft | 465 kts | 168° |
| 2026-05-06 10:00 | 54.27299 | -3.29207 | 33421 ft | 465 kts | 168° |
| 2026-05-06 10:00 | 54.24153 | -3.27946 | 33726 ft | 463 kts | 168° |
| 2026-05-06 10:00 | 54.21022 | -3.26690 | 34036 ft | 462 kts | 168° |
| 2026-05-06 10:00 | 54.17884 | -3.25561 | 34343 ft | 459 kts | 174° |
| 2026-05-06 10:01 | 54.14711 | -3.25006 | 34637 ft | 458 kts | 176° |
| 2026-05-06 10:01 | 54.11541 | -3.24514 | 34897 ft | 457 kts | 176° |
| 2026-05-06 10:01 | 54.05185 | -3.23529 | 35010 ft | 459 kts | 176° |
| 2026-05-06 10:02 | 53.98872 | -3.21878 | 35013 ft | 462 kts | 165° |
| 2026-05-06 10:02 | 53.92864 | -3.18065 | 35004 ft | 463 kts | 161° |
| 2026-05-06 10:03 | 53.86841 | -3.14187 | 35008 ft | 463 kts | 161° |
| 2026-05-06 10:03 | 53.80806 | -3.10339 | 35006 ft | 463 kts | 161° |
| 2026-05-06 10:04 | 53.74769 | -3.06481 | 35012 ft | 463 kts | 161° |
| 2026-05-06 10:04 | 53.68746 | -3.02622 | 35017 ft | 463 kts | 161° |
| 2026-05-06 10:05 | 53.62690 | -2.98768 | 35015 ft | 463 kts | 161° |
| 2026-05-06 10:05 | 53.56737 | -2.94998 | 35011 ft | 463 kts | 161° |
| 2026-05-06 10:06 | 53.50711 | -2.91182 | 35015 ft | 463 kts | 161° |
| 2026-05-06 10:06 | 53.44768 | -2.87431 | 35008 ft | 463 kts | 161° |
| 2026-05-06 10:07 | 53.38720 | -2.83625 | 35010 ft | 463 kts | 161° |
| 2026-05-06 10:07 | 53.32670 | -2.79836 | 35016 ft | 463 kts | 161° |
| 2026-05-06 10:08 | 53.26626 | -2.76057 | 35014 ft | 463 kts | 161° |
| 2026-05-06 10:08 | 53.20607 | -2.72315 | 35013 ft | 464 kts | 161° |
| 2026-05-06 10:09 | 53.14546 | -2.68550 | 35016 ft | 464 kts | 161° |
| 2026-05-06 10:09 | 53.08532 | -2.64829 | 35010 ft | 464 kts | 161° |
| 2026-05-06 10:10 | 53.02476 | -2.61093 | 35011 ft | 464 kts | 161° |
| 2026-05-06 10:10 | 52.96416 | -2.57350 | 35013 ft | 464 kts | 161° |
| 2026-05-06 10:11 | 52.90369 | -2.53629 | 35012 ft | 464 kts | 161° |
| 2026-05-06 10:11 | 52.84343 | -2.49939 | 35016 ft | 464 kts | 161° |
| 2026-05-06 10:12 | 52.78550 | -2.45224 | 35017 ft | 467 kts | 147° |
| 2026-05-06 10:12 | 52.73153 | -2.39236 | 35010 ft | 467 kts | 148° |
| 2026-05-06 10:13 | 52.67749 | -2.33279 | 35009 ft | 467 kts | 148° |
| 2026-05-06 10:13 | 52.62326 | -2.27343 | 34754 ft | 467 kts | 148° |
| 2026-05-06 10:14 | 52.59611 | -2.24376 | 34507 ft | 467 kts | 148° |
| 2026-05-06 10:14 | 52.56941 | -2.21451 | 34261 ft | 468 kts | 148° |
| 2026-05-06 10:14 | 52.54221 | -2.18476 | 34007 ft | 468 kts | 148° |
| 2026-05-06 10:14 | 52.51509 | -2.15515 | 33689 ft | 468 kts | 148° |
| 2026-05-06 10:15 | 52.48778 | -2.12538 | 32534 ft | 471 kts | 148° |
| 2026-05-06 10:15 | 52.46058 | -2.09579 | 31484 ft | 465 kts | 148° |
| 2026-05-06 10:15 | 52.43341 | -2.06633 | 30423 ft | 470 kts | 148° |
| 2026-05-06 10:15 | 52.40580 | -2.03647 | 29226 ft | 478 kts | 148° |
| 2026-05-06 10:16 | 52.37796 | -2.00638 | 28040 ft | 482 kts | 148° |
| 2026-05-06 10:16 | 52.35022 | -1.97642 | 26853 ft | 485 kts | 148° |
| 2026-05-06 10:16 | 52.32207 | -1.94605 | 26031 ft | 480 kts | 148° |
| 2026-05-06 10:16 | 52.29434 | -1.91619 | 25243 ft | 474 kts | 148° |
| 2026-05-06 10:17 | 52.26692 | -1.88670 | 24438 ft | 470 kts | 148° |
| 2026-05-06 10:17 | 52.23975 | -1.85751 | 23649 ft | 465 kts | 148° |
| 2026-05-06 10:17 | 52.21281 | -1.82862 | 22895 ft | 461 kts | 148° |
| 2026-05-06 10:17 | 52.18610 | -1.80005 | 22166 ft | 457 kts | 148° |
| 2026-05-06 10:18 | 52.15957 | -1.77168 | 21457 ft | 453 kts | 148° |
| 2026-05-06 10:18 | 52.13336 | -1.74371 | 20767 ft | 449 kts | 148° |
| 2026-05-06 10:18 | 52.10726 | -1.71594 | 20100 ft | 445 kts | 148° |
| 2026-05-06 10:18 | 52.08153 | -1.68859 | 19641 ft | 437 kts | 149° |
| 2026-05-06 10:19 | 52.05630 | -1.66174 | 19290 ft | 429 kts | 146° |
| 2026-05-06 10:19 | 52.03153 | -1.63540 | 19049 ft | 420 kts | 148° |
| 2026-05-06 10:19 | 52.00720 | -1.60961 | 18571 ft | 418 kts | 148° |
| 2026-05-06 10:19 | 51.98318 | -1.58418 | 18213 ft | 416 kts | 148° |
| 2026-05-06 10:20 | 51.95895 | -1.55855 | 17831 ft | 414 kts | 148° |
| 2026-05-06 10:20 | 51.93492 | -1.53322 | 17473 ft | 412 kts | 148° |
| 2026-05-06 10:20 | 51.91087 | -1.50791 | 17116 ft | 410 kts | 148° |
| 2026-05-06 10:20 | 51.88701 | -1.48280 | 16756 ft | 408 kts | 148° |
| 2026-05-06 10:21 | 51.86325 | -1.45777 | 16398 ft | 406 kts | 148° |
| 2026-05-06 10:21 | 51.83958 | -1.43286 | 16041 ft | 404 kts | 148° |
| 2026-05-06 10:21 | 51.81599 | -1.40812 | 15690 ft | 402 kts | 148° |
| 2026-05-06 10:21 | 51.79299 | -1.38401 | 15347 ft | 401 kts | 148° |
| 2026-05-06 10:22 | 51.76996 | -1.35986 | 15061 ft | 399 kts | 148° |
| 2026-05-06 10:22 | 51.74661 | -1.33544 | 15016 ft | 398 kts | 148° |
| 2026-05-06 10:22 | 51.72338 | -1.31116 | 15026 ft | 399 kts | 147° |
| 2026-05-06 10:22 | 51.70004 | -1.28682 | 15028 ft | 398 kts | 147° |
| 2026-05-06 10:23 | 51.67679 | -1.26258 | 15031 ft | 398 kts | 148° |
| 2026-05-06 10:23 | 51.65354 | -1.23840 | 15032 ft | 398 kts | 147° |
| 2026-05-06 10:23 | 51.63027 | -1.21426 | 15031 ft | 398 kts | 147° |
| 2026-05-06 10:23 | 51.60702 | -1.19015 | 15030 ft | 398 kts | 147° |
| 2026-05-06 10:24 | 51.58368 | -1.16593 | 15029 ft | 398 kts | 147° |
| 2026-05-06 10:24 | 51.56090 | -1.14231 | 15029 ft | 397 kts | 147° |
| 2026-05-06 10:24 | 51.53767 | -1.11827 | 15029 ft | 397 kts | 147° |
| 2026-05-06 10:24 | 51.51439 | -1.09420 | 15030 ft | 397 kts | 147° |
| 2026-05-06 10:25 | 51.49108 | -1.07019 | 15030 ft | 397 kts | 147° |
| 2026-05-06 10:25 | 51.46783 | -1.04630 | 15019 ft | 397 kts | 147° |
| 2026-05-06 10:25 | 51.44453 | -1.02252 | 14613 ft | 395 kts | 148° |
| 2026-05-06 10:25 | 51.42162 | -0.99947 | 14162 ft | 392 kts | 148° |
| 2026-05-06 10:26 | 51.39857 | -0.97641 | 13721 ft | 389 kts | 148° |
| 2026-05-06 10:26 | 51.37550 | -0.95346 | 13230 ft | 382 kts | 148° |
| 2026-05-06 10:26 | 51.35318 | -0.93136 | 12674 ft | 369 kts | 148° |
| 2026-05-06 10:26 | 51.33204 | -0.91049 | 12118 ft | 353 kts | 148° |
| 2026-05-06 10:27 | 51.31148 | -0.89024 | 11556 ft | 339 kts | 148° |
| 2026-05-06 10:27 | 51.29199 | -0.87112 | 11012 ft | 328 kts | 148° |
| 2026-05-06 10:27 | 51.27265 | -0.85224 | 10454 ft | 326 kts | 148° |
| 2026-05-06 10:27 | 51.25335 | -0.83344 | 9829 ft | 322 kts | 148° |
| 2026-05-06 10:28 | 51.24070 | -0.82116 | 9367 ft | 319 kts | 148° |
| 2026-05-06 10:28 | 51.22171 | -0.80275 | 8681 ft | 316 kts | 148° |
| 2026-05-06 10:28 | 51.20299 | -0.78467 | 8001 ft | 313 kts | 148° |
| 2026-05-06 10:28 | 51.18467 | -0.76699 | 7331 ft | 310 kts | 148° |
| 2026-05-06 10:29 | 51.16627 | -0.74924 | 6614 ft | 307 kts | 148° |
| 2026-05-06 10:29 | 51.14933 | -0.72904 | 5838 ft | 301 kts | 129° |
| 2026-05-06 10:29 | 51.13910 | -0.70073 | 5066 ft | 294 kts | 105° |
| 2026-05-06 10:29 | 51.13356 | -0.66959 | 4289 ft | 291 kts | 102° |
| 2026-05-06 10:30 | 51.12882 | -0.63993 | 3603 ft | 285 kts | 101° |
| 2026-05-06 10:30 | 51.12401 | -0.61002 | 3135 ft | 270 kts | 101° |
| 2026-05-06 10:30 | 51.11953 | -0.58218 | 2990 ft | 248 kts | 101° |
| 2026-05-06 10:30 | 51.11539 | -0.55685 | 2996 ft | 230 kts | 102° |
| 2026-05-06 10:31 | 51.11132 | -0.53224 | 2997 ft | 227 kts | 100° |
| 2026-05-06 10:31 | 51.10733 | -0.50795 | 3002 ft | 227 kts | 99° |
| 2026-05-06 10:31 | 51.10708 | -0.48365 | 3012 ft | 221 kts | 75° |
| 2026-05-06 10:31 | 51.11019 | -0.46158 | 3006 ft | 221 kts | 74° |
| 2026-05-06 10:32 | 51.11364 | -0.43767 | 3009 ft | 221 kts | 74° |
| 2026-05-06 10:32 | 51.11684 | -0.41497 | 2869 ft | 213 kts | 75° |
| 2026-05-06 10:32 | 51.11997 | -0.39258 | 2615 ft | 201 kts | 74° |
| 2026-05-06 10:32 | 51.12290 | -0.37164 | 2385 ft | 189 kts | 74° |
| 2026-05-06 10:33 | 51.12566 | -0.35185 | 2123 ft | 173 kts | 73° |
| 2026-05-06 10:33 | 51.12809 | -0.33441 | 1916 ft | 152 kts | 73° |
| 2026-05-06 10:33 | 51.13031 | -0.31850 | 1704 ft | 141 kts | 73° |
| 2026-05-06 10:33 | 51.13237 | -0.30377 | 1513 ft | 136 kts | 73° |
| 2026-05-06 10:34 | 51.13442 | -0.28913 | 1320 ft | 135 kts | 72° |
| 2026-05-06 10:34 | 51.13644 | -0.27463 | 1131 ft | 133 kts | 71° |
| 2026-05-06 10:34 | 51.13844 | -0.26029 | 941 ft | 132 kts | 73° |
| 2026-05-06 10:34 | 51.14040 | -0.24617 | 754 ft | 131 kts | 70° |
| 2026-05-06 10:35 | 51.14237 | -0.23196 | 575 ft | 132 kts | 73° |
| 2026-05-06 10:35 | 51.14436 | -0.21762 | 395 ft | 131 kts | 73° |
| 2026-05-06 10:35 | 51.14633 | -0.20341 | 218 ft | 130 kts | 73° |
| 2026-05-06 10:35 | 51.14803 | -0.19180 | 215 ft | 92 kts | 78° |
| 2026-05-06 10:36 | 51.14911 | -0.18365 | 208 ft | 62 kts | 77° |
| 2026-05-06 10:36 | 51.14974 | -0.17988 | 213 ft | 19 kts | 67° |
| 2026-05-06 10:36 | 51.15039 | -0.17836 | 216 ft | 16 kts | 52° |
| 2026-05-06 10:36 | 51.15125 | -0.17760 | 206 ft | 14 kts | 5° |
| 2026-05-06 10:37 | 51.15186 | -0.17672 | 211 ft | 11 kts | 69° |
| 2026-05-06 10:37 | 51.15199 | -0.17561 | 208 ft | 9 kts | 79° |
| 2026-05-06 10:37 | 51.15214 | -0.17468 | 208 ft | 8 kts | 75° |
| 2026-05-06 10:37 | 51.15222 | -0.17422 | 210 ft | 0 kts | 77° |
| 2026-05-06 10:38 | 51.15243 | -0.17368 | 207 ft | 11 kts | 36° |
| 2026-05-06 10:38 | 51.15332 | -0.17366 | 205 ft | 15 kts | 347° |
| 2026-05-06 10:38 | 51.15438 | -0.17404 | 205 ft | 16 kts | 347° |
| 2026-05-06 10:39 | 51.15555 | -0.17445 | 205 ft | 18 kts | 347° |
| 2026-05-06 10:39 | 51.15638 | -0.17474 | 207 ft | 19 kts | 348° |
| 2026-05-06 10:39 | 51.15755 | -0.17481 | 208 ft | 15 kts | 45° |
| 2026-05-06 10:39 | 51.15786 | -0.17329 | 205 ft | 15 kts | 77° |
| 2026-05-06 10:40 | 51.15810 | -0.17166 | 211 ft | 14 kts | 78° |
| 2026-05-06 10:40 | 51.15855 | -0.17075 | 208 ft | 9 kts | 13° |
| 2026-05-06 10:40 | 51.15908 | -0.17106 | 210 ft | 7 kts | 314° |
| 2026-05-06 10:40 | 51.15929 | -0.17156 | 209 ft | 0 kts | 313° |
| 2026-05-06 10:41 | 51.15931 | -0.17159 | 208 ft | 0 kts | 314° |